Impacts TAF Board
For situational awareness. Not to be used for flight planning purposes.
IDs:

KIAH - Houston/Bush Intl, TX, US

Issued at 2322 UTC 16 Jul 2019
Updated at 0054 UTC 17 Jul 2019
Potential Impact None Slight Moderate High
Time<<17/13Z 17/14Z 17/15Z 17/16Z 17/17Z 17/18Z 17/19Z 17/20Z 17/21Z 17/22Z 17/23Z 18/00Z 18/01Z>>
Type PRVL PRVL PRVL PRVL PRVL PRVL PRVL PRVL PRVL PRVL PRVL PRVL PRVL
VIS >6 >6 >6 >6 >6 >6 >6 >6 >6 >6 >6 >6 >6
CIG 25 25 25 -- -- -- -- -- -- -- -- -- --
Cover BKN BKN BKN SCT SCT SCT SCT SCT SCT SCT SCT SCT SCT
FltCat MVFR MVFR MVFR VFR VFR VFR VFR VFR VFR VFR VFR VFR VFR
WX -- -- -- -- -- -- -- -- -- -- -- -- --
WDir 160 160 160 160 160 160 160 160 160 160 160 160 160
WSpd 4 4 4 11 11 11 11 11 11 11 11 11 7
WGst -- -- -- -- -- -- -- -- -- -- -- -- --
Raw TAF
KIAH 162322Z 1700/1806 16012KT P6SM FEW040 BKN250
  FM170200 17006KT P6SM FEW025 SCT250
  TEMPO 1709/1713 BKN015
  FM171300 16004KT P6SM BKN025
  FM171600 16011KT P6SM SCT040
  FM180100 16007KT P6SM SCT250


METAR Board
Radar Display
Forecast Discussion
For situational awareness. Not to be used for flight planning purposes.